sensor_id;sensor_type;location;lat;lon;timestamp;P1;durP1;ratioP1;P2;durP2;ratioP2
28613;SDS011;15806;53.548;9.964;2024-03-02T00:00:03;24.42;;;9.45;;
28613;SDS011;15806;53.548;9.964;2024-03-02T00:01:44;26.42;;;9.98;;
28613;SDS011;15806;53.548;9.964;2024-03-02T00:03:25;31.80;;;10.27;;
28613;SDS011;15806;53.548;9.964;2024-03-02T00:05:06;22.73;;;9.00;;
28613;SDS011;15806;53.548;9.964;2024-03-02T00:06:47;22.40;;;9.43;;
28613;SDS011;15806;53.548;9.964;2024-03-02T00:08:27;23.87;;;8.67;;
28613;SDS011;15806;53.548;9.964;2024-03-02T00:10:10;21.80;;;9.63;;
28613;SDS011;15806;53.548;9.964;2024-03-02T00:11:51;23.60;;;10.13;;
28613;SDS011;15806;53.548;9.964;2024-03-02T00:13:32;33.63;;;10.00;;
28613;SDS011;15806;53.548;9.964;2024-03-02T00:17:24;27.70;;;10.98;;
28613;SDS011;15806;53.548;9.964;2024-03-02T00:19:05;24.55;;;9.93;;
28613;SDS011;15806;53.548;9.964;2024-03-02T00:20:46;27.17;;;9.57;;
28613;SDS011;15806;53.548;9.964;2024-03-02T00:22:27;25.83;;;10.30;;
28613;SDS011;15806;53.548;9.964;2024-03-02T00:24:21;29.50;;;9.70;;
28613;SDS011;15806;53.548;9.964;2024-03-02T00:26:05;25.75;;;9.50;;
28613;SDS011;15806;53.548;9.964;2024-03-02T00:27:49;32.57;;;10.90;;
28613;SDS011;15806;53.548;9.964;2024-03-02T00:29:30;27.42;;;10.02;;
28613;SDS011;15806;53.548;9.964;2024-03-02T00:31:13;27.67;;;9.33;;
28613;SDS011;15806;53.548;9.964;2024-03-02T00:32:54;33.42;;;11.63;;
28613;SDS011;15806;53.548;9.964;2024-03-02T00:34:35;24.70;;;9.00;;
28613;SDS011;15806;53.548;9.964;2024-03-02T00:36:16;25.07;;;9.60;;
28613;SDS011;15806;53.548;9.964;2024-03-02T00:38:05;28.05;;;10.35;;
28613;SDS011;15806;53.548;9.964;2024-03-02T00:39:48;27.92;;;10.15;;
28613;SDS011;15806;53.548;9.964;2024-03-02T00:41:29;27.45;;;9.77;;
28613;SDS011;15806;53.548;9.964;2024-03-02T00:45:18;29.58;;;10.27;;
28613;SDS011;15806;53.548;9.964;2024-03-02T00:46:59;27.47;;;9.53;;
28613;SDS011;15806;53.548;9.964;2024-03-02T00:48:41;32.40;;;10.73;;
28613;SDS011;15806;53.548;9.964;2024-03-02T00:50:36;31.42;;;10.80;;
28613;SDS011;15806;53.548;9.964;2024-03-02T00:52:17;33.23;;;11.27;;
28613;SDS011;15806;53.548;9.964;2024-03-02T00:54:01;30.77;;;11.43;;
28613;SDS011;15806;53.548;9.964;2024-03-02T00:55:44;27.55;;;10.57;;
28613;SDS011;15806;53.548;9.964;2024-03-02T00:57:24;31.77;;;11.57;;
28613;SDS011;15806;53.548;9.964;2024-03-02T01:00:46;29.65;;;11.10;;
28613;SDS011;15806;53.548;9.964;2024-03-02T01:02:27;32.90;;;11.73;;
28613;SDS011;15806;53.548;9.964;2024-03-02T01:04:08;33.50;;;12.15;;
28613;SDS011;15806;53.548;9.964;2024-03-02T01:05:49;29.13;;;11.55;;
28613;SDS011;15806;53.548;9.964;2024-03-02T01:07:29;41.83;;;12.80;;
28613;SDS011;15806;53.548;9.964;2024-03-02T01:09:10;33.73;;;11.73;;
28613;SDS011;15806;53.548;9.964;2024-03-02T01:10:50;34.80;;;11.50;;
28613;SDS011;15806;53.548;9.964;2024-03-02T01:12:31;34.50;;;12.27;;
28613;SDS011;15806;53.548;9.964;2024-03-02T01:14:11;36.20;;;12.70;;
28613;SDS011;15806;53.548;9.964;2024-03-02T01:15:52;36.80;;;11.97;;
28613;SDS011;15806;53.548;9.964;2024-03-02T01:17:32;34.47;;;12.33;;
28613;SDS011;15806;53.548;9.964;2024-03-02T01:19:13;41.70;;;14.90;;
28613;SDS011;15806;53.548;9.964;2024-03-02T01:20:53;42.93;;;12.93;;
28613;SDS011;15806;53.548;9.964;2024-03-02T01:22:34;37.43;;;12.83;;
28613;SDS011;15806;53.548;9.964;2024-03-02T01:24:15;36.60;;;11.90;;
28613;SDS011;15806;53.548;9.964;2024-03-02T01:25:55;38.10;;;13.77;;
28613;SDS011;15806;53.548;9.964;2024-03-02T01:27:36;41.13;;;14.63;;
28613;SDS011;15806;53.548;9.964;2024-03-02T01:29:16;40.13;;;13.37;;
28613;SDS011;15806;53.548;9.964;2024-03-02T01:30:57;42.57;;;13.77;;
28613;SDS011;15806;53.548;9.964;2024-03-02T01:32:37;43.60;;;13.83;;
28613;SDS011;15806;53.548;9.964;2024-03-02T01:34:18;31.50;;;11.20;;
28613;SDS011;15806;53.548;9.964;2024-03-02T01:35:59;41.63;;;14.77;;
28613;SDS011;15806;53.548;9.964;2024-03-02T01:37:39;42.80;;;13.63;;
28613;SDS011;15806;53.548;9.964;2024-03-02T01:39:20;40.07;;;15.10;;
28613;SDS011;15806;53.548;9.964;2024-03-02T01:41:00;48.63;;;15.23;;
28613;SDS011;15806;53.548;9.964;2024-03-02T01:42:41;46.03;;;13.48;;
28613;SDS011;15806;53.548;9.964;2024-03-02T01:46:03;43.33;;;14.57;;
28613;SDS011;15806;53.548;9.964;2024-03-02T01:47:44;42.20;;;14.23;;
28613;SDS011;15806;53.548;9.964;2024-03-02T01:49:24;40.03;;;14.07;;
28613;SDS011;15806;53.548;9.964;2024-03-02T01:51:05;42.53;;;14.67;;
28613;SDS011;15806;53.548;9.964;2024-03-02T01:52:46;43.25;;;14.77;;
28613;SDS011;15806;53.548;9.964;2024-03-02T01:54:27;44.57;;;15.73;;
28613;SDS011;15806;53.548;9.964;2024-03-02T01:56:07;41.40;;;14.03;;
28613;SDS011;15806;53.548;9.964;2024-03-02T01:57:48;42.43;;;13.23;;
28613;SDS011;15806;53.548;9.964;2024-03-02T01:59:29;46.50;;;14.57;;
28613;SDS011;15806;53.548;9.964;2024-03-02T02:01:10;50.43;;;15.47;;
28613;SDS011;15806;53.548;9.964;2024-03-02T02:02:50;41.90;;;13.97;;
28613;SDS011;15806;53.548;9.964;2024-03-02T02:04:31;48.38;;;15.48;;
28613;SDS011;15806;53.548;9.964;2024-03-02T02:06:12;45.67;;;14.80;;
28613;SDS011;15806;53.548;9.964;2024-03-02T02:07:52;51.10;;;14.60;;
28613;SDS011;15806;53.548;9.964;2024-03-02T02:09:33;43.93;;;16.47;;
28613;SDS011;15806;53.548;9.964;2024-03-02T02:11:16;48.60;;;16.77;;
28613;SDS011;15806;53.548;9.964;2024-03-02T02:12:57;45.15;;;14.68;;
28613;SDS011;15806;53.548;9.964;2024-03-02T02:14:38;44.87;;;16.60;;
28613;SDS011;15806;53.548;9.964;2024-03-02T02:16:18;44.53;;;15.03;;
28613;SDS011;15806;53.548;9.964;2024-03-02T02:17:59;41.73;;;14.57;;
28613;SDS011;15806;53.548;9.964;2024-03-02T02:19:40;39.63;;;14.17;;
28613;SDS011;15806;53.548;9.964;2024-03-02T02:23:03;44.22;;;15.45;;
28613;SDS011;15806;53.548;9.964;2024-03-02T02:24:44;41.97;;;14.43;;
28613;SDS011;15806;53.548;9.964;2024-03-02T02:26:24;47.33;;;15.13;;
28613;SDS011;15806;53.548;9.964;2024-03-02T02:28:05;47.47;;;16.30;;
28613;SDS011;15806;53.548;9.964;2024-03-02T02:29:45;44.30;;;15.07;;
28613;SDS011;15806;53.548;9.964;2024-03-02T02:31:26;44.40;;;15.10;;
28613;SDS011;15806;53.548;9.964;2024-03-02T02:33:06;49.10;;;15.73;;
28613;SDS011;15806;53.548;9.964;2024-03-02T02:34:47;43.43;;;17.07;;
28613;SDS011;15806;53.548;9.964;2024-03-02T02:36:32;46.63;;;15.80;;
28613;SDS011;15806;53.548;9.964;2024-03-02T02:38:14;44.17;;;14.55;;
28613;SDS011;15806;53.548;9.964;2024-03-02T02:39:54;50.40;;;14.83;;
28613;SDS011;15806;53.548;9.964;2024-03-02T02:41:35;40.10;;;14.30;;
28613;SDS011;15806;53.548;9.964;2024-03-02T02:43:15;42.10;;;14.67;;
28613;SDS011;15806;53.548;9.964;2024-03-02T02:44:56;46.27;;;15.20;;
28613;SDS011;15806;53.548;9.964;2024-03-02T02:46:36;40.33;;;13.33;;
28613;SDS011;15806;53.548;9.964;2024-03-02T02:48:17;40.57;;;14.37;;
28613;SDS011;15806;53.548;9.964;2024-03-02T02:49:57;46.37;;;15.33;;
28613;SDS011;15806;53.548;9.964;2024-03-02T02:51:38;42.40;;;14.43;;
28613;SDS011;15806;53.548;9.964;2024-03-02T02:53:18;49.83;;;15.93;;
28613;SDS011;15806;53.548;9.964;2024-03-02T02:54:59;41.57;;;15.03;;
28613;SDS011;15806;53.548;9.964;2024-03-02T02:56:39;41.97;;;15.40;;
28613;SDS011;15806;53.548;9.964;2024-03-02T02:58:20;46.10;;;14.87;;
28613;SDS011;15806;53.548;9.964;2024-03-02T03:00:04;42.17;;;14.90;;
28613;SDS011;15806;53.548;9.964;2024-03-02T03:01:46;48.65;;;15.18;;
28613;SDS011;15806;53.548;9.964;2024-03-02T03:03:27;43.77;;;14.97;;
28613;SDS011;15806;53.548;9.964;2024-03-02T03:05:12;42.93;;;14.57;;
28613;SDS011;15806;53.548;9.964;2024-03-02T03:06:53;45.50;;;14.98;;
28613;SDS011;15806;53.548;9.964;2024-03-02T03:08:34;46.80;;;15.97;;
28613;SDS011;15806;53.548;9.964;2024-03-02T03:10:14;53.07;;;15.43;;
28613;SDS011;15806;53.548;9.964;2024-03-02T03:11:55;43.10;;;14.80;;
28613;SDS011;15806;53.548;9.964;2024-03-02T03:13:36;42.83;;;15.43;;
28613;SDS011;15806;53.548;9.964;2024-03-02T03:15:16;44.70;;;15.33;;
28613;SDS011;15806;53.548;9.964;2024-03-02T03:16:57;42.47;;;14.93;;
28613;SDS011;15806;53.548;9.964;2024-03-02T03:18:37;45.33;;;14.70;;
28613;SDS011;15806;53.548;9.964;2024-03-02T03:20:18;44.30;;;15.07;;
28613;SDS011;15806;53.548;9.964;2024-03-02T03:21:58;43.50;;;15.40;;
28613;SDS011;15806;53.548;9.964;2024-03-02T03:23:39;45.87;;;14.27;;
28613;SDS011;15806;53.548;9.964;2024-03-02T03:25:19;37.53;;;13.03;;
28613;SDS011;15806;53.548;9.964;2024-03-02T03:27:00;37.80;;;14.00;;
28613;SDS011;15806;53.548;9.964;2024-03-02T03:28:40;50.63;;;15.23;;
28613;SDS011;15806;53.548;9.964;2024-03-02T03:30:21;45.37;;;15.00;;
28613;SDS011;15806;53.548;9.964;2024-03-02T03:32:01;41.37;;;15.23;;
28613;SDS011;15806;53.548;9.964;2024-03-02T03:33:42;43.03;;;12.97;;
28613;SDS011;15806;53.548;9.964;2024-03-02T03:35:22;42.33;;;14.80;;
28613;SDS011;15806;53.548;9.964;2024-03-02T03:37:03;41.43;;;14.60;;
28613;SDS011;15806;53.548;9.964;2024-03-02T03:38:44;43.57;;;14.57;;
28613;SDS011;15806;53.548;9.964;2024-03-02T03:40:24;48.10;;;14.97;;
28613;SDS011;15806;53.548;9.964;2024-03-02T03:42:05;48.97;;;16.23;;
28613;SDS011;15806;53.548;9.964;2024-03-02T03:43:45;42.27;;;13.63;;
28613;SDS011;15806;53.548;9.964;2024-03-02T03:45:26;55.37;;;18.47;;
28613;SDS011;15806;53.548;9.964;2024-03-02T03:47:06;39.90;;;14.43;;
28613;SDS011;15806;53.548;9.964;2024-03-02T03:48:47;48.57;;;14.97;;
28613;SDS011;15806;53.548;9.964;2024-03-02T03:50:27;44.07;;;15.10;;
28613;SDS011;15806;53.548;9.964;2024-03-02T03:52:08;42.73;;;15.07;;
28613;SDS011;15806;53.548;9.964;2024-03-02T03:53:49;44.20;;;14.97;;
28613;SDS011;15806;53.548;9.964;2024-03-02T03:55:29;44.67;;;14.23;;
28613;SDS011;15806;53.548;9.964;2024-03-02T03:57:10;46.00;;;16.70;;
28613;SDS011;15806;53.548;9.964;2024-03-02T03:58:50;44.33;;;16.50;;
28613;SDS011;15806;53.548;9.964;2024-03-02T04:00:31;41.93;;;14.10;;
28613;SDS011;15806;53.548;9.964;2024-03-02T04:02:11;44.13;;;13.87;;
28613;SDS011;15806;53.548;9.964;2024-03-02T04:03:52;45.73;;;14.80;;
28613;SDS011;15806;53.548;9.964;2024-03-02T04:05:32;44.57;;;14.90;;
28613;SDS011;15806;53.548;9.964;2024-03-02T04:07:13;39.53;;;13.30;;
28613;SDS011;15806;53.548;9.964;2024-03-02T04:08:53;44.83;;;15.30;;
28613;SDS011;15806;53.548;9.964;2024-03-02T04:10:34;45.70;;;14.33;;
28613;SDS011;15806;53.548;9.964;2024-03-02T04:12:14;41.47;;;14.43;;
28613;SDS011;15806;53.548;9.964;2024-03-02T04:13:55;34.27;;;13.57;;
28613;SDS011;15806;53.548;9.964;2024-03-02T04:15:35;48.37;;;14.83;;
28613;SDS011;15806;53.548;9.964;2024-03-02T04:17:16;38.50;;;14.03;;
28613;SDS011;15806;53.548;9.964;2024-03-02T04:18:56;41.43;;;13.90;;
28613;SDS011;15806;53.548;9.964;2024-03-02T04:20:37;38.77;;;13.17;;
28613;SDS011;15806;53.548;9.964;2024-03-02T04:22:17;38.03;;;13.43;;
28613;SDS011;15806;53.548;9.964;2024-03-02T04:23:58;39.90;;;14.67;;
28613;SDS011;15806;53.548;9.964;2024-03-02T04:25:38;39.17;;;13.63;;
28613;SDS011;15806;53.548;9.964;2024-03-02T04:27:19;38.17;;;13.33;;
28613;SDS011;15806;53.548;9.964;2024-03-02T04:28:59;42.63;;;14.60;;
28613;SDS011;15806;53.548;9.964;2024-03-02T04:30:40;43.87;;;15.73;;
28613;SDS011;15806;53.548;9.964;2024-03-02T04:32:20;37.33;;;13.50;;
28613;SDS011;15806;53.548;9.964;2024-03-02T04:34:01;40.63;;;13.80;;
28613;SDS011;15806;53.548;9.964;2024-03-02T04:35:41;40.53;;;13.77;;
28613;SDS011;15806;53.548;9.964;2024-03-02T04:37:22;40.43;;;14.00;;
28613;SDS011;15806;53.548;9.964;2024-03-02T04:39:02;38.40;;;15.63;;
28613;SDS011;15806;53.548;9.964;2024-03-02T04:40:43;38.70;;;15.07;;
28613;SDS011;15806;53.548;9.964;2024-03-02T04:42:23;37.27;;;13.87;;
28613;SDS011;15806;53.548;9.964;2024-03-02T04:44:04;44.03;;;12.60;;
28613;SDS011;15806;53.548;9.964;2024-03-02T04:45:45;40.00;;;13.83;;
28613;SDS011;15806;53.548;9.964;2024-03-02T04:47:25;40.43;;;13.63;;
28613;SDS011;15806;53.548;9.964;2024-03-02T04:49:06;37.13;;;13.60;;
28613;SDS011;15806;53.548;9.964;2024-03-02T04:50:46;44.00;;;13.83;;
28613;SDS011;15806;53.548;9.964;2024-03-02T04:52:26;36.17;;;13.30;;
28613;SDS011;15806;53.548;9.964;2024-03-02T04:54:07;37.90;;;12.93;;
28613;SDS011;15806;53.548;9.964;2024-03-02T04:55:48;34.63;;;13.37;;
28613;SDS011;15806;53.548;9.964;2024-03-02T04:57:28;40.50;;;13.40;;
28613;SDS011;15806;53.548;9.964;2024-03-02T04:59:08;41.77;;;14.93;;
28613;SDS011;15806;53.548;9.964;2024-03-02T05:00:49;38.23;;;14.33;;
28613;SDS011;15806;53.548;9.964;2024-03-02T05:02:29;39.17;;;13.97;;
28613;SDS011;15806;53.548;9.964;2024-03-02T05:04:10;38.63;;;13.23;;
28613;SDS011;15806;53.548;9.964;2024-03-02T05:05:51;43.63;;;14.27;;
28613;SDS011;15806;53.548;9.964;2024-03-02T05:07:31;38.37;;;14.07;;
28613;SDS011;15806;53.548;9.964;2024-03-02T05:09:12;40.67;;;13.97;;
28613;SDS011;15806;53.548;9.964;2024-03-02T05:10:52;46.00;;;13.43;;
28613;SDS011;15806;53.548;9.964;2024-03-02T05:12:33;42.93;;;15.13;;
28613;SDS011;15806;53.548;9.964;2024-03-02T05:14:13;38.77;;;13.47;;
28613;SDS011;15806;53.548;9.964;2024-03-02T05:15:54;39.43;;;15.17;;
28613;SDS011;15806;53.548;9.964;2024-03-02T05:17:39;38.95;;;13.05;;
28613;SDS011;15806;53.548;9.964;2024-03-02T05:19:20;34.88;;;13.95;;
28613;SDS011;15806;53.548;9.964;2024-03-02T05:21:01;37.77;;;15.13;;
28613;SDS011;15806;53.548;9.964;2024-03-02T05:22:41;44.23;;;14.47;;
28613;SDS011;15806;53.548;9.964;2024-03-02T05:24:22;43.23;;;15.23;;
28613;SDS011;15806;53.548;9.964;2024-03-02T05:26:02;38.67;;;13.40;;
28613;SDS011;15806;53.548;9.964;2024-03-02T05:27:43;39.53;;;13.27;;
28613;SDS011;15806;53.548;9.964;2024-03-02T05:29:23;39.53;;;13.37;;
28613;SDS011;15806;53.548;9.964;2024-03-02T05:31:04;41.17;;;14.13;;
28613;SDS011;15806;53.548;9.964;2024-03-02T05:32:45;39.03;;;12.80;;
28613;SDS011;15806;53.548;9.964;2024-03-02T05:34:25;40.37;;;13.50;;
28613;SDS011;15806;53.548;9.964;2024-03-02T05:36:06;39.53;;;13.70;;
28613;SDS011;15806;53.548;9.964;2024-03-02T05:37:46;36.97;;;13.18;;
28613;SDS011;15806;53.548;9.964;2024-03-02T05:39:27;36.20;;;14.10;;
28613;SDS011;15806;53.548;9.964;2024-03-02T05:41:07;40.80;;;14.33;;
28613;SDS011;15806;53.548;9.964;2024-03-02T05:42:48;36.97;;;13.30;;
28613;SDS011;15806;53.548;9.964;2024-03-02T05:44:29;37.50;;;12.90;;
28613;SDS011;15806;53.548;9.964;2024-03-02T05:46:09;40.33;;;12.33;;
28613;SDS011;15806;53.548;9.964;2024-03-02T05:47:50;40.77;;;13.77;;
28613;SDS011;15806;53.548;9.964;2024-03-02T05:49:30;37.40;;;13.67;;
28613;SDS011;15806;53.548;9.964;2024-03-02T05:51:11;33.30;;;12.93;;
28613;SDS011;15806;53.548;9.964;2024-03-02T05:52:51;35.93;;;13.77;;
28613;SDS011;15806;53.548;9.964;2024-03-02T05:54:32;35.17;;;13.37;;
28613;SDS011;15806;53.548;9.964;2024-03-02T05:56:12;39.70;;;14.00;;
28613;SDS011;15806;53.548;9.964;2024-03-02T05:57:53;37.37;;;13.40;;
28613;SDS011;15806;53.548;9.964;2024-03-02T05:59:33;42.87;;;14.93;;
28613;SDS011;15806;53.548;9.964;2024-03-02T06:01:14;37.60;;;13.80;;
28613;SDS011;15806;53.548;9.964;2024-03-02T06:02:54;36.03;;;13.27;;
28613;SDS011;15806;53.548;9.964;2024-03-02T06:04:35;38.20;;;13.13;;
28613;SDS011;15806;53.548;9.964;2024-03-02T06:06:15;36.70;;;13.97;;
28613;SDS011;15806;53.548;9.964;2024-03-02T06:07:56;38.57;;;14.50;;
28613;SDS011;15806;53.548;9.964;2024-03-02T06:09:36;37.17;;;13.27;;
28613;SDS011;15806;53.548;9.964;2024-03-02T06:11:17;38.50;;;13.23;;
28613;SDS011;15806;53.548;9.964;2024-03-02T06:12:59;34.25;;;12.77;;
28613;SDS011;15806;53.548;9.964;2024-03-02T06:14:39;35.53;;;12.57;;
28613;SDS011;15806;53.548;9.964;2024-03-02T06:16:20;37.30;;;13.37;;
28613;SDS011;15806;53.548;9.964;2024-03-02T06:18:00;34.70;;;13.33;;
28613;SDS011;15806;53.548;9.964;2024-03-02T06:19:41;33.00;;;11.70;;
28613;SDS011;15806;53.548;9.964;2024-03-02T06:21:21;45.47;;;16.10;;
28613;SDS011;15806;53.548;9.964;2024-03-02T06:23:02;42.63;;;13.37;;
28613;SDS011;15806;53.548;9.964;2024-03-02T06:24:43;49.28;;;12.98;;
28613;SDS011;15806;53.548;9.964;2024-03-02T06:26:23;38.77;;;13.83;;
28613;SDS011;15806;53.548;9.964;2024-03-02T06:28:04;44.60;;;13.70;;
28613;SDS011;15806;53.548;9.964;2024-03-02T06:29:44;36.27;;;11.93;;
28613;SDS011;15806;53.548;9.964;2024-03-02T06:31:25;39.27;;;12.77;;
28613;SDS011;15806;53.548;9.964;2024-03-02T06:33:05;39.77;;;13.47;;
28613;SDS011;15806;53.548;9.964;2024-03-02T06:34:46;41.30;;;13.03;;
28613;SDS011;15806;53.548;9.964;2024-03-02T06:36:26;40.17;;;14.30;;
28613;SDS011;15806;53.548;9.964;2024-03-02T06:38:07;39.70;;;14.80;;
28613;SDS011;15806;53.548;9.964;2024-03-02T06:39:47;34.53;;;13.27;;
28613;SDS011;15806;53.548;9.964;2024-03-02T06:41:28;39.13;;;14.20;;
28613;SDS011;15806;53.548;9.964;2024-03-02T06:43:08;38.30;;;13.03;;
28613;SDS011;15806;53.548;9.964;2024-03-02T06:44:49;35.43;;;11.93;;
28613;SDS011;15806;53.548;9.964;2024-03-02T06:46:29;35.73;;;12.53;;
28613;SDS011;15806;53.548;9.964;2024-03-02T06:48:10;35.70;;;12.60;;
28613;SDS011;15806;53.548;9.964;2024-03-02T06:49:50;34.23;;;12.80;;
28613;SDS011;15806;53.548;9.964;2024-03-02T06:51:31;43.50;;;14.83;;
28613;SDS011;15806;53.548;9.964;2024-03-02T06:53:14;46.50;;;14.65;;
28613;SDS011;15806;53.548;9.964;2024-03-02T06:54:54;39.40;;;13.30;;
28613;SDS011;15806;53.548;9.964;2024-03-02T06:56:35;33.97;;;13.27;;
28613;SDS011;15806;53.548;9.964;2024-03-02T06:58:15;41.60;;;13.10;;
28613;SDS011;15806;53.548;9.964;2024-03-02T06:59:56;41.37;;;13.90;;
28613;SDS011;15806;53.548;9.964;2024-03-02T07:01:36;33.90;;;13.77;;
28613;SDS011;15806;53.548;9.964;2024-03-02T07:03:17;40.03;;;13.03;;
28613;SDS011;15806;53.548;9.964;2024-03-02T07:04:57;33.77;;;12.13;;
28613;SDS011;15806;53.548;9.964;2024-03-02T07:06:38;37.90;;;13.60;;
28613;SDS011;15806;53.548;9.964;2024-03-02T07:08:18;43.57;;;13.90;;
28613;SDS011;15806;53.548;9.964;2024-03-02T07:09:59;36.23;;;12.63;;
28613;SDS011;15806;53.548;9.964;2024-03-02T07:11:39;38.13;;;12.80;;
28613;SDS011;15806;53.548;9.964;2024-03-02T07:13:20;31.17;;;12.47;;
28613;SDS011;15806;53.548;9.964;2024-03-02T07:15:00;38.03;;;13.87;;
28613;SDS011;15806;53.548;9.964;2024-03-02T07:16:41;37.57;;;12.97;;
28613;SDS011;15806;53.548;9.964;2024-03-02T07:18:21;39.03;;;13.63;;
28613;SDS011;15806;53.548;9.964;2024-03-02T07:20:02;33.03;;;12.67;;
28613;SDS011;15806;53.548;9.964;2024-03-02T07:21:43;36.47;;;12.83;;
28613;SDS011;15806;53.548;9.964;2024-03-02T07:23:23;34.17;;;13.40;;
28613;SDS011;15806;53.548;9.964;2024-03-02T07:25:04;41.07;;;13.93;;
28613;SDS011;15806;53.548;9.964;2024-03-02T07:26:45;33.53;;;12.32;;
28613;SDS011;15806;53.548;9.964;2024-03-02T07:28:25;34.27;;;12.07;;
28613;SDS011;15806;53.548;9.964;2024-03-02T07:30:06;31.98;;;11.55;;
28613;SDS011;15806;53.548;9.964;2024-03-02T07:31:47;40.42;;;13.65;;
28613;SDS011;15806;53.548;9.964;2024-03-02T07:33:28;33.50;;;11.37;;
28613;SDS011;15806;53.548;9.964;2024-03-02T07:35:08;34.40;;;11.77;;
28613;SDS011;15806;53.548;9.964;2024-03-02T07:36:49;31.47;;;13.77;;
28613;SDS011;15806;53.548;9.964;2024-03-02T07:38:29;38.03;;;13.60;;
28613;SDS011;15806;53.548;9.964;2024-03-02T07:40:10;37.87;;;11.70;;
28613;SDS011;15806;53.548;9.964;2024-03-02T07:41:51;36.42;;;13.23;;
28613;SDS011;15806;53.548;9.964;2024-03-02T07:43:32;35.07;;;13.17;;
28613;SDS011;15806;53.548;9.964;2024-03-02T07:45:12;39.13;;;15.73;;
28613;SDS011;15806;53.548;9.964;2024-03-02T07:46:53;32.83;;;12.57;;
28613;SDS011;15806;53.548;9.964;2024-03-02T07:48:34;43.47;;;15.77;;
28613;SDS011;15806;53.548;9.964;2024-03-02T07:50:14;38.33;;;13.10;;
28613;SDS011;15806;53.548;9.964;2024-03-02T07:51:55;36.30;;;12.70;;
28613;SDS011;15806;53.548;9.964;2024-03-02T07:53:35;31.70;;;11.83;;
28613;SDS011;15806;53.548;9.964;2024-03-02T07:55:17;29.07;;;11.67;;
28613;SDS011;15806;53.548;9.964;2024-03-02T07:58:38;33.58;;;12.15;;
28613;SDS011;15806;53.548;9.964;2024-03-02T08:00:18;34.27;;;12.10;;
28613;SDS011;15806;53.548;9.964;2024-03-02T08:01:59;35.10;;;12.87;;
28613;SDS011;15806;53.548;9.964;2024-03-02T08:03:39;34.50;;;12.67;;
28613;SDS011;15806;53.548;9.964;2024-03-02T08:05:20;36.63;;;11.90;;
28613;SDS011;15806;53.548;9.964;2024-03-02T08:07:01;45.70;;;17.17;;
28613;SDS011;15806;53.548;9.964;2024-03-02T08:08:41;34.40;;;13.00;;
28613;SDS011;15806;53.548;9.964;2024-03-02T08:10:22;35.80;;;12.30;;
28613;SDS011;15806;53.548;9.964;2024-03-02T08:12:02;35.87;;;12.93;;
28613;SDS011;15806;53.548;9.964;2024-03-02T08:13:43;30.60;;;11.50;;
28613;SDS011;15806;53.548;9.964;2024-03-02T08:15:24;33.50;;;11.93;;
28613;SDS011;15806;53.548;9.964;2024-03-02T08:17:05;33.10;;;12.75;;
28613;SDS011;15806;53.548;9.964;2024-03-02T08:18:46;37.17;;;11.67;;
28613;SDS011;15806;53.548;9.964;2024-03-02T08:20:27;39.28;;;12.85;;
28613;SDS011;15806;53.548;9.964;2024-03-02T08:22:08;36.17;;;14.40;;
28613;SDS011;15806;53.548;9.964;2024-03-02T08:23:48;31.27;;;12.77;;
28613;SDS011;15806;53.548;9.964;2024-03-02T08:25:29;34.90;;;11.67;;
28613;SDS011;15806;53.548;9.964;2024-03-02T08:27:09;31.63;;;12.07;;
28613;SDS011;15806;53.548;9.964;2024-03-02T08:28:50;36.00;;;12.77;;
28613;SDS011;15806;53.548;9.964;2024-03-02T08:30:30;31.57;;;11.80;;
28613;SDS011;15806;53.548;9.964;2024-03-02T08:32:11;34.67;;;12.03;;
28613;SDS011;15806;53.548;9.964;2024-03-02T08:33:51;35.40;;;12.40;;
28613;SDS011;15806;53.548;9.964;2024-03-02T08:35:32;31.87;;;13.27;;
28613;SDS011;15806;53.548;9.964;2024-03-02T08:37:12;33.53;;;12.80;;
28613;SDS011;15806;53.548;9.964;2024-03-02T08:38:53;37.13;;;12.67;;
28613;SDS011;15806;53.548;9.964;2024-03-02T08:40:34;36.73;;;12.73;;
28613;SDS011;15806;53.548;9.964;2024-03-02T08:42:14;33.77;;;12.60;;
28613;SDS011;15806;53.548;9.964;2024-03-02T08:43:55;40.13;;;14.23;;
28613;SDS011;15806;53.548;9.964;2024-03-02T08:45:35;44.93;;;16.13;;
28613;SDS011;15806;53.548;9.964;2024-03-02T08:47:16;36.37;;;13.77;;
28613;SDS011;15806;53.548;9.964;2024-03-02T08:48:57;35.40;;;12.83;;
28613;SDS011;15806;53.548;9.964;2024-03-02T08:50:37;34.40;;;11.97;;
28613;SDS011;15806;53.548;9.964;2024-03-02T08:52:18;31.13;;;11.40;;
28613;SDS011;15806;53.548;9.964;2024-03-02T08:53:58;37.17;;;13.30;;
28613;SDS011;15806;53.548;9.964;2024-03-02T08:55:39;31.38;;;12.80;;
28613;SDS011;15806;53.548;9.964;2024-03-02T08:57:20;28.53;;;11.00;;
28613;SDS011;15806;53.548;9.964;2024-03-02T08:59:00;27.60;;;11.20;;
28613;SDS011;15806;53.548;9.964;2024-03-02T09:00:41;32.97;;;12.90;;
28613;SDS011;15806;53.548;9.964;2024-03-02T09:02:21;32.60;;;11.80;;
28613;SDS011;15806;53.548;9.964;2024-03-02T09:04:02;32.73;;;12.30;;
28613;SDS011;15806;53.548;9.964;2024-03-02T09:05:43;29.80;;;12.03;;
28613;SDS011;15806;53.548;9.964;2024-03-02T09:07:23;30.57;;;11.03;;
28613;SDS011;15806;53.548;9.964;2024-03-02T09:09:04;33.77;;;12.63;;
28613;SDS011;15806;53.548;9.964;2024-03-02T09:10:44;31.23;;;12.40;;
28613;SDS011;15806;53.548;9.964;2024-03-02T09:12:25;35.03;;;13.23;;
28613;SDS011;15806;53.548;9.964;2024-03-02T09:14:05;34.50;;;11.33;;
28613;SDS011;15806;53.548;9.964;2024-03-02T09:15:46;30.33;;;11.87;;
28613;SDS011;15806;53.548;9.964;2024-03-02T09:17:26;31.70;;;11.67;;
28613;SDS011;15806;53.548;9.964;2024-03-02T09:19:07;31.60;;;12.00;;
28613;SDS011;15806;53.548;9.964;2024-03-02T09:20:47;30.23;;;12.87;;
28613;SDS011;15806;53.548;9.964;2024-03-02T09:22:28;31.53;;;12.07;;
28613;SDS011;15806;53.548;9.964;2024-03-02T09:24:09;26.17;;;11.23;;
28613;SDS011;15806;53.548;9.964;2024-03-02T09:25:49;26.13;;;10.63;;
28613;SDS011;15806;53.548;9.964;2024-03-02T09:27:30;29.37;;;11.63;;
28613;SDS011;15806;53.548;9.964;2024-03-02T09:29:10;31.60;;;11.17;;
28613;SDS011;15806;53.548;9.964;2024-03-02T09:30:51;24.70;;;10.10;;
28613;SDS011;15806;53.548;9.964;2024-03-02T09:32:31;30.20;;;11.07;;
28613;SDS011;15806;53.548;9.964;2024-03-02T09:34:12;27.40;;;10.80;;
28613;SDS011;15806;53.548;9.964;2024-03-02T09:35:52;28.80;;;11.70;;
28613;SDS011;15806;53.548;9.964;2024-03-02T09:37:33;30.07;;;11.83;;
28613;SDS011;15806;53.548;9.964;2024-03-02T09:39:13;23.47;;;10.60;;
28613;SDS011;15806;53.548;9.964;2024-03-02T09:40:54;29.20;;;11.57;;
28613;SDS011;15806;53.548;9.964;2024-03-02T09:42:34;30.27;;;11.87;;
28613;SDS011;15806;53.548;9.964;2024-03-02T09:44:15;29.48;;;11.52;;
28613;SDS011;15806;53.548;9.964;2024-03-02T09:45:56;22.00;;;9.53;;
28613;SDS011;15806;53.548;9.964;2024-03-02T09:47:36;29.17;;;11.97;;
28613;SDS011;15806;53.548;9.964;2024-03-02T09:49:18;20.67;;;9.88;;
28613;SDS011;15806;53.548;9.964;2024-03-02T09:50:58;24.90;;;10.93;;
28613;SDS011;15806;53.548;9.964;2024-03-02T09:52:41;28.75;;;11.13;;
28613;SDS011;15806;53.548;9.964;2024-03-02T09:54:22;30.05;;;12.02;;
28613;SDS011;15806;53.548;9.964;2024-03-02T09:56:03;24.00;;;9.57;;
28613;SDS011;15806;53.548;9.964;2024-03-02T09:57:44;23.73;;;10.43;;
28613;SDS011;15806;53.548;9.964;2024-03-02T09:59:25;24.90;;;10.30;;